Time;durP1;ratioP1;P1;durP2;ratioP2;P2;SDS_P1;SDS_P2;PMS_P1;PMS_P2;Temp;Humidity;BMP_temperature;BMP_pressure;BME280_temperature;BME280_humidity;BME280_pressure;Samples;Min_cycle;Max_cycle;Signal;HPM_P1;HPM_P2
2022/07/05 00:01:16;;;;;;;;;2.75;2.50;;;;;18.80;57.22;102121.53;5012116;28;9040;-66
2022/07/05 00:03:43;;;;;;;;;2.25;2.25;;;;;18.81;57.56;102114.16;5007428;28;8890;-66
2022/07/05 00:06:09;;;;;;;;;2.50;2.00;;;;;18.82;57.10;102121.28;4987623;28;8876;-65
2022/07/05 00:08:38;;;;;;;;;2.50;2.00;;;;;18.82;57.35;102121.28;5009707;28;8875;-65
2022/07/05 00:11:05;;;;;;;;;2.00;2.00;;;;;18.81;57.45;102117.72;5010562;28;8841;-66
2022/07/05 00:13:31;;;;;;;;;2.00;2.00;;;;;18.82;57.54;102121.28;5014210;28;8968;-66
2022/07/05 00:15:58;;;;;;;;;2.00;2.00;;;;;18.83;57.66;102120.22;5003806;28;9589;-65
2022/07/05 00:18:24;;;;;;;;;2.00;2.00;;;;;18.82;57.78;102116.66;5024205;28;8904;-66
2022/07/05 00:20:51;;;;;;;;;3.75;3.75;;;;;18.81;57.58;102119.63;5021544;28;8843;-67
2022/07/05 00:23:17;;;;;;;;;1.00;1.00;;;;;18.82;57.79;102118.56;5011424;28;8829;-66
2022/07/05 00:25:44;;;;;;;;;2.00;2.00;;;;;18.82;57.95;102115.84;5012350;28;8839;-65
2022/07/05 00:28:10;;;;;;;;;2.25;1.25;;;;;18.80;57.85;102112.47;5016331;28;8867;-64
2022/07/05 00:30:37;;;;;;;;;1.75;1.75;;;;;18.80;58.09;102112.47;5015849;28;8834;-66
2022/07/05 00:33:04;;;;;;;;;2.00;2.00;;;;;18.77;58.34;102109.13;5000631;28;8955;-66
2022/07/05 00:35:30;;;;;;;;;2.00;2.00;;;;;18.77;57.98;102116.50;5005183;28;8863;-65
2022/07/05 00:37:57;;;;;;;;;3.00;2.00;;;;;18.75;58.27;102113.13;4997402;28;8851;-65
2022/07/05 00:40:23;;;;;;;;;2.00;2.00;;;;;18.71;58.14;102106.44;5021859;28;9510;-66
2022/07/05 00:42:50;;;;;;;;;1.75;1.75;;;;;18.67;58.31;102118.81;4990194;28;8959;-66
2022/07/05 00:45:16;;;;;;;;;3.00;3.00;;;;;18.63;58.35;102115.66;5003610;28;8807;-66
2022/07/05 00:47:43;;;;;;;;;2.33;2.33;;;;;18.61;58.44;102120.50;5001411;28;9469;-66
2022/07/05 00:50:09;;;;;;;;;2.00;2.00;;;;;18.59;58.59;102117.16;5009091;28;8916;-66
2022/07/05 00:52:36;;;;;;;;;2.00;2.00;;;;;18.55;58.60;102118.63;5014634;28;8822;-65
2022/07/05 00:55:02;;;;;;;;;2.50;2.25;;;;;18.51;58.59;102111.94;4998470;28;8841;-66
2022/07/05 00:57:30;;;;;;;;;2.00;2.00;;;;;18.45;58.79;102112.81;4991909;28;8829;-66
2022/07/05 00:59:56;;;;;;;;;3.00;2.00;;;;;18.38;59.25;102112.84;4991910;28;8877;-66
2022/07/05 01:02:23;;;;;;;;;2.00;2.00;;;;;18.32;59.32;102110.97;5003087;28;8897;-66
2022/07/05 01:04:51;;;;;;;;;2.00;2.00;;;;;18.29;59.30;102106.78;4996867;28;8999;-66
2022/07/05 01:07:20;;;;;;;;;2.00;2.00;;;;;18.24;59.77;102114.78;5020445;28;8830;-66
2022/07/05 01:09:46;;;;;;;;;2.50;2.50;;;;;18.20;59.41;102108.09;5003817;28;8847;-68
2022/07/05 01:12:13;;;;;;;;;1.00;1.00;;;;;18.16;59.74;102101.38;4999205;28;8838;-66
2022/07/05 01:14:42;;;;;;;;;2.00;2.00;;;;;18.14;60.06;102111.66;4989780;28;9031;-66
2022/07/05 01:17:09;;;;;;;;;2.50;2.50;;;;;18.12;60.07;102104.75;5019990;28;8823;-66
2022/07/05 01:19:37;;;;;;;;;3.75;3.00;;;;;18.10;60.42;102112.28;5012007;28;8850;-65
2022/07/05 01:22:15;;;;;;;;;3.00;3.00;;;;;18.08;60.47;102109.78;5004385;28;8915;-66
2022/07/05 01:24:42;;;;;;;;;2.25;2.25;;;;;18.04;60.45;102105.81;4993391;28;8834;-66
2022/07/05 01:27:09;;;;;;;;;3.25;3.25;;;;;18.01;60.57;102108.97;5002178;28;9005;-66
2022/07/05 01:29:35;;;;;;;;;2.25;2.00;;;;;18.00;60.47;102110.84;5011469;28;8830;-66
2022/07/05 01:32:02;;;;;;;;;5.25;2.75;;;;;17.97;60.41;102111.28;4997259;28;8979;-65
2022/07/05 01:34:29;;;;;;;;;1.50;1.50;;;;;17.96;60.63;102111.50;5010056;28;8923;-66
2022/07/05 01:36:55;;;;;;;;;4.00;2.00;;;;;17.96;60.98;102106.88;5022027;28;8929;-66
2022/07/05 01:39:22;;;;;;;;;2.75;2.00;;;;;17.96;60.75;102106.03;5019236;28;8901;-66
2022/07/05 01:41:48;;;;;;;;;3.25;3.25;;;;;17.94;61.07;102108.97;5009602;28;8860;-65
2022/07/05 01:44:15;;;;;;;;;2.75;2.75;;;;;17.93;60.86;102115.47;4997439;28;8915;-66
2022/07/05 01:46:43;;;;;;;;;2.00;2.00;;;;;17.91;61.00;102114.84;5012951;28;8846;-66
2022/07/05 01:49:13;;;;;;;;;2.00;2.00;;;;;17.92;61.05;102115.69;5000067;28;8823;-66
2022/07/05 01:51:48;;;;;;;;;3.00;2.25;;;;;17.91;61.36;102111.31;5010702;28;8843;-66
2022/07/05 01:54:14;;;;;;;;;2.00;2.00;;;;;17.90;61.50;102123.22;5006880;28;8856;-66
2022/07/05 01:56:41;;;;;;;;;4.00;3.50;;;;;17.86;61.19;102111.06;4988405;28;8854;-66
2022/07/05 01:59:08;;;;;;;;;3.25;3.25;;;;;17.84;61.55;102113.19;5005951;28;8878;-65
2022/07/05 02:01:37;;;;;;;;;2.25;2.25;;;;;17.78;61.75;102110.28;4999633;28;8943;-65
2022/07/05 02:04:10;;;;;;;;;3.75;3.00;;;;;17.73;61.43;102104.56;4994818;28;8917;-65
2022/07/05 02:06:37;;;;;;;;;4.00;3.00;;;;;17.71;61.71;102114.00;5000053;28;8850;-65
2022/07/05 02:09:07;;;;;;;;;2.75;2.75;;;;;17.67;62.12;102113.59;4997115;28;9545;-64
2022/07/05 02:11:34;;;;;;;;;4.33;4.33;;;;;17.64;62.11;102113.16;5002778;28;8834;-65
2022/07/05 02:14:03;;;;;;;;;3.00;2.50;;;;;17.61;62.40;102111.69;4989120;28;8945;-65
2022/07/05 02:16:33;;;;;;;;;6.00;6.00;;;;;17.59;62.38;102116.53;5005373;28;8842;-65
2022/07/05 02:19:00;;;;;;;;;3.50;2.00;;;;;17.57;62.18;102118.59;5006359;28;9079;-64
2022/07/05 02:21:30;;;;;;;;;6.67;3.00;;;;;17.55;62.37;102110.66;5001148;28;8827;-65
2022/07/05 02:23:57;;;;;;;;;3.00;3.00;;;;;17.54;62.29;102103.53;4993499;28;9017;-65
2022/07/05 02:26:27;;;;;;;;;4.00;3.00;;;;;17.53;62.48;102106.47;4987088;28;8978;-65
2022/07/05 02:28:54;;;;;;;;;7.00;6.00;;;;;17.52;62.56;102115.69;4987033;28;8977;-65
2022/07/05 02:31:21;;;;;;;;;4.25;4.25;;;;;17.51;62.63;102103.13;4996312;28;8941;-66
2022/07/05 02:33:52;;;;;;;;;4.00;4.00;;;;;17.51;63.03;102106.69;4982950;28;8838;-66
2022/07/05 02:36:20;;;;;;;;;3.33;3.33;;;;;17.53;62.56;102111.91;4998812;28;8917;-65
2022/07/05 02:38:47;;;;;;;;;6.00;6.00;;;;;17.53;62.61;102107.28;4989367;28;9049;-66
2022/07/05 02:41:14;;;;;;;;;5.67;5.00;;;;;17.53;62.82;102110.00;5000717;28;9025;-66
2022/07/05 02:43:44;;;;;;;;;3.00;3.00;;;;;17.52;62.59;102105.63;4988668;28;8959;-66
2022/07/05 02:46:12;;;;;;;;;6.33;5.00;;;;;17.52;62.99;102108.34;5014449;28;8890;-66
2022/07/05 02:48:39;;;;;;;;;5.75;5.75;;;;;17.51;63.00;102103.97;5002246;28;8983;-66
2022/07/05 02:51:07;;;;;;;;;5.75;4.75;;;;;17.51;63.21;102103.13;4994626;28;8842;-66
2022/07/05 02:53:34;;;;;;;;;3.25;3.25;;;;;17.49;62.78;102102.47;4992517;28;8840;-64
2022/07/05 02:56:03;;;;;;;;;5.50;4.25;;;;;17.48;62.96;102109.81;4989455;28;8869;-64
2022/07/05 02:58:30;;;;;;;;;3.00;3.00;;;;;17.48;63.13;102111.69;4999009;28;8973;-66
2022/07/05 03:00:58;;;;;;;;;4.25;4.00;;;;;17.43;63.27;102119.66;4997610;28;8989;-66
2022/07/05 03:03:27;;;;;;;;;4.00;4.00;;;;;17.39;63.30;102112.97;4982641;28;8838;-65
2022/07/05 03:05:54;;;;;;;;;6.00;6.00;;;;;17.34;63.13;102120.88;5017328;28;8895;-65
2022/07/05 03:08:22;;;;;;;;;6.00;6.00;;;;;17.30;63.66;102120.50;4998277;28;9015;-64
2022/07/05 03:10:49;;;;;;;;;5.33;5.33;;;;;17.26;63.80;102117.34;5003897;28;8913;-65
2022/07/05 03:13:16;;;;;;;;;8.00;8.00;;;;;17.24;63.48;102122.16;4988930;28;8940;-65
2022/07/05 03:15:43;;;;;;;;;6.33;6.33;;;;;17.23;63.69;102117.75;5004654;28;9000;-65
2022/07/05 03:18:12;;;;;;;;;5.33;5.33;;;;;17.21;64.01;102119.81;4987283;28;8925;-66
2022/07/05 03:20:39;;;;;;;;;7.67;7.33;;;;;17.20;64.37;102123.59;5003795;28;10205;-65
2022/07/05 03:23:06;;;;;;;;;7.50;7.00;;;;;17.19;64.20;102129.25;4985223;28;8955;-65
2022/07/05 03:25:41;;;;;;;;;6.00;6.00;;;;;17.18;64.03;102125.72;5003307;28;9211;-63
2022/07/05 03:28:10;;;;;;;;;6.00;5.00;;;;;17.17;64.47;102132.16;4995132;28;8992;-65
2022/07/05 03:30:39;;;;;;;;;5.00;5.00;;;;;17.18;64.50;102139.31;5002465;28;9168;-65
2022/07/05 03:33:07;;;;;;;;;5.00;5.00;;;;;17.21;64.38;102140.75;4994618;28;9080;-66
2022/07/05 03:35:36;;;;;;;;;5.67;5.00;;;;;17.23;64.29;102141.41;5000172;28;9172;-65
2022/07/05 03:38:03;;;;;;;;;6.00;6.00;;;;;17.24;64.41;102141.19;5002715;28;9163;-66
2022/07/05 03:40:29;;;;;;;;;7.00;5.00;;;;;17.27;64.36;102139.94;5007599;28;9078;-66
2022/07/05 03:42:56;;;;;;;;;3.00;3.00;;;;;17.30;64.23;102143.09;4990428;28;9090;-65
2022/07/05 03:45:27;;;;;;;;;6.50;6.50;;;;;17.33;64.17;102136.38;4996022;28;9004;-66
2022/07/05 03:47:57;;;;;;;;;7.25;5.50;;;;;17.36;63.65;102140.59;5006556;28;8847;-65
2022/07/05 03:50:38;;;;;;;;;7.00;7.00;;;;;17.34;64.25;102135.38;4997421;28;8852;-66
2022/07/05 03:53:05;;;;;;;;;10.25;7.50;;;;;17.35;63.91;102141.66;4997014;28;8873;-65
2022/07/05 03:55:31;;;;;;;;;7.33;5.67;;;;;17.35;64.28;102141.66;4994086;28;9630;-65
2022/07/05 03:57:58;;;;;;;;;7.00;7.00;;;;;17.35;64.08;102134.31;4996381;28;9749;-65
2022/07/05 04:00:25;;;;;;;;;7.33;6.67;;;;;17.37;63.97;102144.97;4990856;28;9174;-65
2022/07/05 04:02:59;;;;;;;;;7.00;7.00;;;;;17.37;63.77;102145.81;5007367;28;8931;-66
2022/07/05 04:05:25;;;;;;;;;10.00;10.00;;;;;17.37;63.85;102145.81;4993897;28;9607;-66
2022/07/05 04:07:55;;;;;;;;;12.00;8.67;;;;;17.36;64.16;102130.53;5008102;28;9101;-66
2022/07/05 04:10:34;;;;;;;;;7.00;7.00;;;;;17.36;64.08;102135.16;4997065;28;9756;-65
2022/07/05 04:13:01;;;;;;;;;6.00;6.00;;;;;17.35;64.03;102141.66;4985971;28;8959;-64
2022/07/05 04:15:28;;;;;;;;;10.33;8.67;;;;;17.36;63.94;102140.59;4987507;28;9105;-66
2022/07/05 04:17:58;;;;;;;;;8.33;8.33;;;;;17.36;63.52;102144.16;5006928;28;9105;-65
2022/07/05 04:20:27;;;;;;;;;10.67;10.67;;;;;17.37;63.80;102153.16;4997495;28;8941;-65
2022/07/05 04:22:55;;;;;;;;;7.33;7.33;;;;;17.38;63.72;102149.38;5034170;23;9118;-65
2022/07/05 04:25:22;;;;;;;;;9.00;7.33;;;;;17.38;63.98;102152.97;5031145;28;9081;-66
2022/07/05 04:28:02;;;;;;;;;8.33;7.67;;;;;17.39;64.09;102148.34;5031908;28;9075;-66
2022/07/05 04:30:31;;;;;;;;;8.00;7.33;;;;;17.39;63.93;102146.47;5025009;28;9318;-67
2022/07/05 04:32:59;;;;;;;;;10.33;8.33;;;;;17.41;64.05;102149.78;5037441;28;9225;-66
2022/07/05 04:35:26;;;;;;;;;7.00;7.00;;;;;17.41;63.84;102151.69;5020030;28;9247;-66
2022/07/05 04:37:53;;;;;;;;;10.67;9.00;;;;;17.39;63.76;102146.47;5022254;28;9067;-66
2022/07/05 04:40:21;;;;;;;;;8.00;8.00;;;;;17.41;63.97;102148.97;5019850;28;9153;-66
2022/07/05 04:42:49;;;;;;;;;6.67;6.67;;;;;17.41;64.15;102147.06;5011581;28;9074;-65
2022/07/05 04:45:16;;;;;;;;;10.67;8.00;;;;;17.44;64.08;102151.28;5028625;28;9013;-66
2022/07/05 04:47:43;;;;;;;;;12.00;8.33;;;;;17.47;63.81;102150.88;5011879;28;9410;-65
2022/07/05 04:50:10;;;;;;;;;11.00;10.67;;;;;17.49;64.05;102154.22;5015321;28;9078;-65
2022/07/05 04:52:37;;;;;;;;;10.33;9.00;;;;;17.49;64.08;102154.22;5020832;28;9154;-66
2022/07/05 04:55:04;;;;;;;;;9.33;9.33;;;;;17.49;64.09;102156.94;5018201;28;10009;-66
2022/07/05 04:57:40;;;;;;;;;16.33;12.67;;;;;17.49;63.78;102159.66;5016853;28;9136;-68
2022/07/05 05:00:09;;;;;;;;;15.67;12.33;;;;;17.48;63.78;102153.38;5018728;28;9231;-66
2022/07/05 05:02:35;;;;;;;;;8.00;8.00;;;;;17.49;64.10;102160.47;5021415;28;9962;-65
2022/07/05 05:05:02;;;;;;;;;8.00;8.00;;;;;17.52;64.29;102161.97;5009009;28;9074;-65
2022/07/05 05:07:29;;;;;;;;;9.33;8.00;;;;;17.52;63.94;102153.78;5009692;28;9235;-65
2022/07/05 05:10:02;;;;;;;;;13.33;8.00;;;;;17.51;63.97;102158.41;5003523;28;9942;-64
2022/07/05 05:12:28;;;;;;;;;11.00;11.00;;;;;17.52;64.18;102157.34;5010852;28;9078;-66
2022/07/05 05:14:55;;;;;;;;;12.00;12.00;;;;;17.50;63.75;102162.19;5009939;28;9105;-66
2022/07/05 05:17:21;;;;;;;;;11.67;11.67;;;;;17.47;63.70;102165.31;5009089;28;9007;-64
2022/07/05 05:19:48;;;;;;;;;9.00;8.67;;;;;17.49;64.20;102165.09;5008553;28;8997;-65
2022/07/05 05:22:14;;;;;;;;;9.00;9.00;;;;;17.52;64.17;102164.69;5007063;28;9786;-66
2022/07/05 05:24:40;;;;;;;;;12.00;12.00;;;;;17.54;64.19;102159.84;5011272;28;8996;-65
2022/07/05 05:27:07;;;;;;;;;8.33;8.00;;;;;17.57;63.75;102164.06;5004307;28;8979;-65
2022/07/05 05:29:33;;;;;;;;;8.67;8.67;;;;;17.58;64.08;102171.16;5012912;28;8993;-64
2022/07/05 05:32:00;;;;;;;;;10.33;10.33;;;;;17.61;63.78;102171.59;5023625;28;9072;-65
2022/07/05 05:34:27;;;;;;;;;6.67;6.67;;;;;17.67;63.64;102168.06;5010060;28;9206;-65
2022/07/05 05:36:54;;;;;;;;;5.00;5.00;;;;;17.81;63.78;102171.63;4999830;28;9188;-65
2022/07/05 05:39:20;;;;;;;;;5.50;5.50;;;;;18.01;63.08;102177.91;5008098;28;8844;-65
2022/07/05 05:41:47;;;;;;;;;5.00;5.00;;;;;18.28;63.12;102173.28;5012741;28;8837;-65
2022/07/05 05:44:13;;;;;;;;;4.50;4.50;;;;;18.52;62.00;102181.81;5016113;28;8947;-65
2022/07/05 05:46:39;;;;;;;;;7.00;6.00;;;;;18.70;61.06;102181.97;5004045;28;8984;-65
2022/07/05 05:49:06;;;;;;;;;8.00;8.00;;;;;18.88;60.72;102185.88;5004905;28;9544;-66
2022/07/05 05:51:33;;;;;;;;;6.00;6.00;;;;;19.05;60.16;102181.63;5007525;28;8943;-64
2022/07/05 05:53:59;;;;;;;;;7.75;6.50;;;;;19.18;59.35;102192.47;5015435;28;8963;-65
2022/07/05 05:56:26;;;;;;;;;4.75;4.75;;;;;19.27;58.86;102185.69;5012399;28;9583;-65
2022/07/05 05:58:53;;;;;;;;;3.50;2.25;;;;;19.17;57.48;102192.69;5011275;28;8947;-67
2022/07/05 06:01:19;;;;;;;;;2.00;1.00;;;;;19.07;57.14;102189.59;5001323;28;8835;-63
2022/07/05 06:03:46;;;;;;;;;2.00;2.00;;;;;18.96;56.01;102189.22;5012316;28;8828;-65
2022/07/05 06:06:12;;;;;;;;;0.25;0.25;;;;;18.86;55.22;102193.47;5004855;28;8843;-64
2022/07/05 06:08:38;;;;;;;;;1.00;1.00;;;;;18.78;55.16;102189.09;5007500;28;8852;-66
2022/07/05 06:11:05;;;;;;;;;1.00;1.00;;;;;18.77;55.07;102190.97;5010883;28;8852;-66
2022/07/05 06:13:32;;;;;;;;;0.00;0.00;;;;;18.78;55.21;102191.81;5009540;28;8816;-66
2022/07/05 06:15:58;;;;;;;;;2.00;0.00;;;;;18.80;55.29;102189.72;5009866;28;8943;-66
2022/07/05 06:18:25;;;;;;;;;0.50;0.50;;;;;18.76;54.90;102193.94;5011282;28;9547;-66
2022/07/05 06:20:51;;;;;;;;;0.00;0.00;;;;;18.65;54.67;102192.66;5011074;28;8833;-66
2022/07/05 06:23:18;;;;;;;;;0.00;0.00;;;;;18.59;54.72;102190.78;5008628;28;8840;-66
2022/07/05 06:25:44;;;;;;;;;1.00;1.00;;;;;18.59;54.80;102198.97;5009844;28;8837;-65
2022/07/05 06:28:11;;;;;;;;;0.00;0.00;;;;;18.61;54.61;102190.59;5009003;28;8864;-66
2022/07/05 06:30:38;;;;;;;;;1.50;0.25;;;;;18.64;54.71;102196.47;5005553;28;8946;-66
2022/07/05 06:33:05;;;;;;;;;0.50;0.50;;;;;18.67;54.23;102196.00;5010259;28;8844;-66
2022/07/05 06:35:32;;;;;;;;;0.50;0.50;;;;;18.68;54.24;102196.88;5010453;28;8852;-65
2022/07/05 06:38:01;;;;;;;;;0.75;0.75;;;;;18.55;53.60;102200.44;5010153;28;8864;-64
2022/07/05 06:40:32;;;;;;;;;0.75;0.75;;;;;18.51;53.92;102210.97;5010918;28;8824;-66
2022/07/05 06:43:01;;;;;;;;;0.00;0.00;;;;;18.54;53.42;102207.78;5010980;28;8824;-66
2022/07/05 06:45:51;;;;;;;;;1.25;1.00;;;;;18.60;53.20;102217.03;5000295;28;8832;-67
2022/07/05 06:48:17;;;;;;;;;0.50;0.50;;;;;18.66;53.07;102212.59;5010454;28;8963;-66
2022/07/05 06:50:44;;;;;;;;;0.25;0.25;;;;;18.61;52.64;102221.44;5010049;28;8903;-64
2022/07/05 06:53:12;;;;;;;;;1.00;1.00;;;;;18.60;53.12;102216.19;5010470;28;8840;-65
2022/07/05 06:55:44;;;;;;;;;0.50;0.50;;;;;18.62;52.75;102214.91;5024580;28;8857;-67
2022/07/05 06:58:18;;;;;;;;;0.00;0.00;;;;;18.64;52.70;102217.44;5009691;28;8860;-66
2022/07/05 07:00:45;;;;;;;;;0.00;0.00;;;;;18.64;52.66;102223.72;5011868;28;8963;-67
2022/07/05 07:03:31;;;;;;;;;0.00;0.00;;;;;18.58;52.29;102215.56;5010268;28;8940;-65
2022/07/05 07:06:19;;;;;;;;;2.00;0.25;;;;;18.67;51.75;102226.00;5009678;28;8871;-66
2022/07/05 07:11:30;;;;;;;;;0.25;0.25;;;;;18.76;50.80;102216.59;4990906;28;8811;-67
2022/07/05 07:13:57;;;;;;;;;1.00;1.00;;;;;18.86;50.83;102220.75;4997958;28;8942;-66
2022/07/05 07:16:23;;;;;;;;;0.50;0.50;;;;;18.94;50.90;102223.22;5004783;28;8947;-66
2022/07/05 07:18:50;;;;;;;;;1.00;1.00;;;;;18.98;50.32;102224.47;5010315;28;9582;-66
2022/07/05 07:21:36;;;;;;;;;0.00;0.00;;;;;18.93;49.75;102224.28;5005981;28;8833;-66
2022/07/05 07:24:03;;;;;;;;;0.75;0.75;;;;;18.89;50.06;102223.88;5010397;28;8959;-65
2022/07/05 07:26:29;;;;;;;;;0.50;0.00;;;;;18.92;51.38;102222.59;4999946;28;8935;-67
2022/07/05 07:28:56;;;;;;;;;0.25;0.25;;;;;18.98;50.55;102224.47;4998363;28;8950;-66
2022/07/05 07:31:22;;;;;;;;;0.75;0.75;;;;;18.97;50.45;102231.00;5009355;28;8836;-66
2022/07/05 07:33:49;;;;;;;;;0.00;0.00;;;;;18.96;50.42;102232.06;5008882;28;8918;-65
2022/07/05 07:36:16;;;;;;;;;1.00;1.00;;;;;18.99;50.14;102228.88;5009314;28;9576;-66
2022/07/05 07:38:42;;;;;;;;;1.50;1.50;;;;;19.01;49.72;102226.78;5008650;28;8833;-65
2022/07/05 07:41:09;;;;;;;;;0.75;0.75;;;;;19.08;49.79;102229.47;5010523;28;8951;-65
2022/07/05 07:43:35;;;;;;;;;1.50;1.00;;;;;19.15;49.87;102227.53;5008151;28;8930;-66
2022/07/05 07:46:01;;;;;;;;;0.00;0.00;;;;;19.26;49.77;102237.78;5001749;28;8840;-65
2022/07/05 07:48:29;;;;;;;;;1.00;1.00;;;;;19.37;50.04;102236.25;5002857;28;8851;-66
2022/07/05 07:50:55;;;;;;;;;1.75;1.00;;;;;19.31;50.25;102240.69;5004714;28;8951;-66
2022/07/05 07:53:22;;;;;;;;;1.00;1.00;;;;;19.22;49.94;102242.00;5004770;28;8824;-66
2022/07/05 07:55:48;;;;;;;;;0.75;0.25;;;;;19.14;49.25;102234.91;5004326;28;8980;-65
2022/07/05 07:58:15;;;;;;;;;0.00;0.00;;;;;19.10;49.75;102239.13;5007595;28;8837;-66
2022/07/05 08:00:42;;;;;;;;;0.00;0.00;;;;;19.16;49.17;102245.59;5007816;28;8847;-66
2022/07/05 08:03:08;;;;;;;;;0.50;0.50;;;;;19.23;49.24;102244.50;5004766;28;8836;-65
2022/07/05 08:05:34;;;;;;;;;0.00;0.00;;;;;19.30;49.73;102244.47;5004568;28;8833;-65
2022/07/05 08:08:01;;;;;;;;;1.00;1.00;;;;;19.28;50.29;102243.84;5002124;28;8857;-65
2022/07/05 08:10:28;;;;;;;;;0.00;0.00;;;;;19.27;50.86;102245.75;5006098;28;8844;-66
2022/07/05 08:12:54;;;;;;;;;0.00;0.00;;;;;19.27;50.79;102251.19;5006660;28;8864;-67
2022/07/05 08:15:21;;;;;;;;;0.25;0.25;;;;;19.30;50.47;102249.09;5005717;28;9567;-65
2022/07/05 08:23:19;;;;;;;;;0.00;0.00;;;;;19.29;49.88;102244.72;5005533;28;8972;-66
2022/07/05 08:25:45;;;;;;;;;1.00;0.00;;;;;19.35;49.52;102249.28;5005195;28;8811;-65
2022/07/05 08:28:11;;;;;;;;;2.00;2.00;;;;;19.37;48.97;102247.19;5006697;28;9677;-65
2022/07/05 08:30:38;;;;;;;;;0.00;0.00;;;;;19.46;48.98;102245.88;5006801;28;8836;-67
2022/07/05 08:33:04;;;;;;;;;1.00;0.50;;;;;19.52;49.26;102245.81;5004742;28;8809;-64
2022/07/05 08:35:31;;;;;;;;;1.75;0.25;;;;;19.61;49.62;102251.03;5004977;28;8825;-65
2022/07/05 08:37:57;;;;;;;;;1.00;1.00;;;;;19.67;49.13;102250.19;5006396;28;8852;-64
2022/07/05 08:40:29;;;;;;;;;0.75;0.75;;;;;19.66;49.16;102256.69;5006469;28;8871;-65
2022/07/05 08:42:57;;;;;;;;;0.00;0.00;;;;;19.57;48.97;102249.78;5007774;28;8837;-66
2022/07/05 08:45:25;;;;;;;;;0.00;0.00;;;;;19.58;49.05;102254.19;5027467;28;8954;-66
2022/07/05 08:47:53;;;;;;;;;0.00;0.00;;;;;19.61;48.30;102251.91;5011963;28;8947;-66
2022/07/05 08:50:21;;;;;;;;;1.50;1.00;;;;;19.63;48.79;102251.66;5011286;28;8911;-67
2022/07/05 08:52:48;;;;;;;;;0.25;0.00;;;;;19.67;49.09;102247.44;5006904;28;8864;-67
2022/07/05 08:55:15;;;;;;;;;1.00;1.00;;;;;19.73;48.87;102250.13;5008826;28;8817;-65
2022/07/05 08:57:41;;;;;;;;;0.00;0.00;;;;;19.82;49.07;102253.44;5003915;28;8845;-66
2022/07/05 09:00:08;;;;;;;;;0.75;0.75;;;;;19.83;48.23;102248.81;5003374;28;9019;-66
2022/07/05 09:02:35;;;;;;;;;1.00;0.25;;;;;19.90;48.65;102249.59;5005653;28;8825;-67
2022/07/05 09:05:04;;;;;;;;;0.75;0.75;;;;;19.91;48.42;102262.19;5011226;28;8836;-66
2022/07/05 09:07:35;;;;;;;;;0.75;0.75;;;;;19.91;48.55;102257.56;5012319;28;8864;-70
2022/07/05 09:10:02;;;;;;;;;0.50;0.50;;;;;19.91;48.45;102265.75;5012028;28;8971;-66
2022/07/05 09:12:29;;;;;;;;;0.00;0.00;;;;;19.88;48.17;102262.63;5011794;28;8804;-67
2022/07/05 09:14:56;;;;;;;;;0.00;0.00;;;;;19.81;48.36;102267.31;5009466;28;8871;-67
2022/07/05 09:17:26;;;;;;;;;2.00;1.00;;;;;19.82;48.97;102263.53;5009664;28;9579;-68
2022/07/05 09:20:12;;;;;;;;;1.00;1.00;;;;;19.93;48.82;102265.53;5007158;28;8829;-68
2022/07/05 09:22:55;;;;;;;;;1.00;1.00;;;;;19.96;47.94;102255.00;5009564;28;8865;-66
2022/07/05 09:25:24;;;;;;;;;0.25;0.25;;;;;20.09;48.52;102267.72;5006142;28;8899;-65
2022/07/05 09:28:03;;;;;;;;;1.00;1.00;;;;;20.21;47.30;102273.28;5008072;28;8849;-65
2022/07/05 09:30:38;;;;;;;;;2.00;1.25;;;;;20.32;47.21;102269.84;5010739;28;8840;-68
2022/07/05 09:33:03;;;;;;;;;1.25;1.00;;;;;20.33;47.55;102273.41;5011609;28;8831;-65
2022/07/05 09:35:31;;;;;;;;;2.00;0.00;;;;;20.34;47.65;102264.16;5010377;28;8832;-67
2022/07/05 09:37:58;;;;;;;;;1.00;1.00;;;;;20.31;47.86;102276.38;5009729;28;8840;-66
2022/07/05 09:40:25;;;;;;;;;2.00;1.00;;;;;20.25;47.75;102283.59;5009354;28;8821;-65
2022/07/05 09:42:51;;;;;;;;;0.75;0.75;;;;;20.33;47.23;102278.88;5009865;28;8999;-66
2022/07/05 09:45:23;;;;;;;;;2.75;1.00;;;;;20.38;46.91;102273.59;5010103;28;8862;-67
2022/07/05 09:47:50;;;;;;;;;0.00;0.00;;;;;20.39;47.05;102275.25;5009764;28;8868;-65
2022/07/05 09:50:37;;;;;;;;;1.00;1.00;;;;;20.32;47.28;102282.69;5001483;28;8873;-66
2022/07/05 09:53:23;;;;;;;;;0.00;0.00;;;;;20.39;47.58;102288.94;5011721;28;8898;-66
2022/07/05 09:56:03;;;;;;;;;2.75;1.25;;;;;20.47;46.53;102280.44;5011668;28;8848;-66
2022/07/05 09:58:29;;;;;;;;;1.00;0.00;;;;;20.50;45.74;102290.97;5011788;28;8884;-65
2022/07/05 10:00:56;;;;;;;;;2.00;2.00;;;;;20.54;45.58;102283.13;5011397;28;8831;-65
2022/07/05 10:03:22;;;;;;;;;0.00;0.00;;;;;20.59;45.79;102280.56;5027256;28;9568;-65
2022/07/05 10:05:49;;;;;;;;;1.25;1.00;;;;;20.70;46.50;102290.75;5010527;28;8921;-65
2022/07/05 10:08:21;;;;;;;;;0.00;0.00;;;;;20.84;46.17;102292.28;5010655;28;8833;-65
2022/07/05 10:10:51;;;;;;;;;1.75;1.00;;;;;20.89;46.26;102295.16;5004807;28;8957;-65
2022/07/05 10:13:18;;;;;;;;;2.00;2.00;;;;;20.79;46.41;102297.63;4999324;28;8849;-66
2022/07/05 10:15:44;;;;;;;;;1.00;1.00;;;;;20.61;46.75;102301.16;4999014;28;8857;-65
2022/07/05 10:18:12;;;;;;;;;2.00;2.00;;;;;20.47;46.66;102297.69;4997215;28;8975;-65
2022/07/05 10:20:41;;;;;;;;;1.50;1.25;;;;;20.33;47.09;102296.13;4998788;28;8838;-65
2022/07/05 10:23:18;;;;;;;;;1.00;1.00;;;;;20.23;46.54;102293.91;5004698;28;8958;-65
2022/07/05 10:25:48;;;;;;;;;2.25;0.50;;;;;20.28;46.48;102306.06;5003719;28;8910;-64
2022/07/05 10:28:19;;;;;;;;;0.00;0.00;;;;;20.29;45.12;102299.53;5004382;28;8832;-67
2022/07/05 10:30:49;;;;;;;;;1.00;1.00;;;;;20.21;45.31;102300.63;4998921;28;8829;-67
2022/07/05 10:33:20;;;;;;;;;0.00;0.00;;;;;20.20;45.45;102301.69;4987229;28;8922;-66
2022/07/05 10:35:47;;;;;;;;;0.50;0.50;;;;;20.31;45.66;102297.41;5000440;28;8837;-67
2022/07/05 10:38:14;;;;;;;;;0.00;0.00;;;;;20.37;45.92;102305.53;5004486;28;8852;-67
2022/07/05 10:40:43;;;;;;;;;1.50;1.00;;;;;20.40;45.40;102312.47;4999188;28;8824;-67
2022/07/05 10:43:12;;;;;;;;;2.00;1.00;;;;;20.51;44.77;102308.22;5001311;28;8839;-67
2022/07/05 10:45:41;;;;;;;;;0.75;0.75;;;;;20.52;45.34;102307.97;5001532;28;8835;-67
2022/07/05 10:48:26;;;;;;;;;0.00;0.00;;;;;20.46;45.20;102308.84;4996513;28;9571;-68
2022/07/05 10:50:58;;;;;;;;;1.00;0.25;;;;;20.39;44.57;102319.00;5000787;28;8936;-66
2022/07/05 10:53:55;;;;;;;;;0.00;0.00;;;;;20.27;44.32;102312.59;4996221;28;8942;-66
2022/07/05 10:56:21;;;;;;;;;0.00;0.00;;;;;20.30;44.94;102315.72;5001367;28;8911;-65
2022/07/05 10:58:48;;;;;;;;;0.00;0.00;;;;;20.16;43.15;102317.72;5006541;28;9496;-66
2022/07/05 11:01:20;;;;;;;;;0.00;0.00;;;;;20.27;43.31;102316.16;5000945;28;8844;-67
2022/07/05 11:04:04;;;;;;;;;0.00;0.00;;;;;20.48;43.36;102312.19;4998285;28;9535;-67
2022/07/05 11:06:38;;;;;;;;;0.50;0.50;;;;;20.56;42.44;102313.84;4999252;28;8833;-68
2022/07/05 11:09:11;;;;;;;;;0.00;0.00;;;;;20.58;42.13;102318.03;5001834;28;8824;-66
2022/07/05 11:11:42;;;;;;;;;0.00;0.00;;;;;20.53;42.53;102311.53;5003060;28;8877;-66
2022/07/05 11:14:30;;;;;;;;;0.00;0.00;;;;;20.65;43.04;102317.94;4996861;28;8909;-67
2022/07/05 11:17:13;;;;;;;;;1.50;0.00;;;;;20.82;43.35;102320.94;5000235;28;8910;-66
2022/07/05 11:20:03;;;;;;;;;0.00;0.00;;;;;20.85;43.27;102325.97;4997812;28;8974;-66
2022/07/05 11:22:30;;;;;;;;;0.75;0.75;;;;;20.81;42.20;102324.75;5007602;28;8868;-66
2022/07/05 11:24:58;;;;;;;;;0.00;0.00;;;;;20.89;42.54;102316.22;5008376;28;8872;-67
2022/07/05 11:27:24;;;;;;;;;1.00;0.00;;;;;20.96;42.31;102320.56;5012017;28;8879;-67
2022/07/05 11:29:52;;;;;;;;;0.00;0.00;;;;;20.94;42.69;102321.84;5000255;28;8952;-66
2022/07/05 11:32:34;;;;;;;;;0.00;0.00;;;;;20.86;42.73;102323.00;5001559;28;8816;-66
2022/07/05 11:35:20;;;;;;;;;0.00;0.00;;;;;20.83;43.05;102317.16;4999887;28;9579;-65
2022/07/05 11:38:02;;;;;;;;;0.00;0.00;;;;;20.88;43.53;102317.31;4999309;28;8861;-65
2022/07/05 11:40:49;;;;;;;;;0.50;0.00;;;;;21.04;43.09;102329.56;5001034;28;8860;-67
2022/07/05 11:43:28;;;;;;;;;0.00;0.00;;;;;21.04;41.66;102316.69;4999157;28;8828;-68
2022/07/05 11:46:02;;;;;;;;;1.00;0.75;;;;;21.14;42.03;102321.63;5001032;28;8847;-68
2022/07/05 11:48:29;;;;;;;;;0.00;0.00;;;;;21.24;41.35;102328.25;5003337;28;8872;-68